createdAt,value
2018-06-08T00:01:40.382Z,20.51
2018-06-08T00:04:13.759Z,20.56
2018-06-08T00:06:44.022Z,20.53
2018-06-08T00:09:14.255Z,20.57
2018-06-08T00:11:44.671Z,20.54
2018-06-08T00:14:16.206Z,20.61
2018-06-08T00:16:46.548Z,20.63
2018-06-08T00:19:16.922Z,20.77
2018-06-08T00:21:47.338Z,20.89
2018-06-08T00:24:20.998Z,20.89
2018-06-08T00:26:51.427Z,20.96
2018-06-08T00:29:21.819Z,20.89
2018-06-08T00:31:52.287Z,20.92
2018-06-08T00:34:23.617Z,20.92
2018-06-08T00:36:53.835Z,20.92
2018-06-08T00:39:24.319Z,20.98
2018-06-08T00:41:54.613Z,21.04
2018-06-08T00:44:25.121Z,20.96
2018-06-08T00:46:55.554Z,20.97
2018-06-08T00:49:26.059Z,20.99
2018-06-08T00:51:56.458Z,20.97
2018-06-08T00:54:30.067Z,20.95
2018-06-08T00:57:03.334Z,21.08
2018-06-08T00:59:33.695Z,21.04
2018-06-08T01:02:04.030Z,21.12
2018-06-08T01:04:40.018Z,21.06
2018-06-08T01:07:10.406Z,21.03
2018-06-08T01:09:40.765Z,21.10
2018-06-08T01:12:11.046Z,21.08
2018-06-08T01:14:44.510Z,21.06
2018-06-08T01:17:15.262Z,21.03
2018-06-08T01:19:45.118Z,20.98
2018-06-08T01:22:15.587Z,20.95
2018-06-08T01:24:49.146Z,20.89
2018-06-08T01:27:19.654Z,20.73
2018-06-08T01:29:50.057Z,20.70
2018-06-08T01:32:20.294Z,20.60
2018-06-08T01:34:50.617Z,20.62
2018-06-08T01:37:20.981Z,20.56
2018-06-08T01:39:51.517Z,20.52
2018-06-08T01:42:22.020Z,20.44
2018-06-08T01:44:52.196Z,20.33
2018-06-08T01:47:22.661Z,20.24
2018-06-08T01:49:53.087Z,20.19
2018-06-08T01:52:23.527Z,20.13
2018-06-08T01:54:53.813Z,20.10
2018-06-08T01:57:24.015Z,19.99
2018-06-08T01:59:54.552Z,19.93
2018-06-08T02:02:24.615Z,19.92
2018-06-08T02:04:55.097Z,19.98
2018-06-08T02:07:25.505Z,19.94
2018-06-08T02:09:55.778Z,19.89
2018-06-08T02:12:26.203Z,19.89
2018-06-08T02:14:56.708Z,19.89
2018-06-08T02:17:27.186Z,19.77
2018-06-08T02:19:57.710Z,19.69
2018-06-08T02:22:31.367Z,19.57
2018-06-08T02:25:02.183Z,19.48
2018-06-08T02:27:32.826Z,19.43
2018-06-08T02:30:03.430Z,19.40
2018-06-08T02:32:39.721Z,19.27
2018-06-08T02:35:10.102Z,19.28
2018-06-08T02:37:40.541Z,19.23
2018-06-08T02:40:10.834Z,19.31
2018-06-08T02:42:42.161Z,19.34
2018-06-08T02:45:12.662Z,19.38
2018-06-08T02:47:42.492Z,19.46
2018-06-08T02:50:13.288Z,19.53
2018-06-08T02:52:43.930Z,19.55
2018-06-08T02:55:14.229Z,19.57
2018-06-08T02:57:44.521Z,19.58
2018-06-08T03:00:14.897Z,19.70
2018-06-08T03:02:45.907Z,19.76
2018-06-08T03:05:16.296Z,19.81
2018-06-08T03:07:46.753Z,19.87
2018-06-08T03:10:17.149Z,20.00
2018-06-08T03:12:51.476Z,20.03
2018-06-08T03:15:21.870Z,20.13
2018-06-08T03:17:53.141Z,20.10
2018-06-08T03:20:23.527Z,20.17
2018-06-08T03:22:54.049Z,20.15
2018-06-08T03:25:25.355Z,20.18
2018-06-08T03:27:55.864Z,20.26
2018-06-08T03:30:26.309Z,20.41
2018-06-08T03:33:00.821Z,20.58
2018-06-08T03:35:31.277Z,20.67
2018-06-08T03:38:01.515Z,20.73
2018-06-08T03:40:32.066Z,20.76
2018-06-08T03:43:05.346Z,21.00
2018-06-08T03:45:35.730Z,21.23
2018-06-08T03:48:06.132Z,21.71
2018-06-08T03:50:36.650Z,23.10
2018-06-08T03:53:13.401Z,24.12
2018-06-08T03:55:43.883Z,24.68
2018-06-08T03:58:14.370Z,24.85
2018-06-08T04:00:44.963Z,25.31
2018-06-08T04:03:18.740Z,24.88
2018-06-08T04:05:49.137Z,23.85
2018-06-08T04:08:19.657Z,23.38
2018-06-08T04:10:50.960Z,23.30
2018-06-08T04:13:21.608Z,23.09
2018-06-08T04:15:52.254Z,23.15
2018-06-08T04:18:22.736Z,23.01
2018-06-08T04:20:53.295Z,22.93
2018-06-08T04:23:25.048Z,22.86
2018-06-08T04:26:05.445Z,22.90
2018-06-08T04:28:38.830Z,23.17
2018-06-08T04:31:09.486Z,23.36
2018-06-08T04:33:42.235Z,23.40
2018-06-08T04:36:18.660Z,23.60
2018-06-08T04:38:50.016Z,23.61
2018-06-08T04:41:21.339Z,23.72
2018-06-08T04:43:55.400Z,23.76
2018-06-08T04:46:25.903Z,23.88
2018-06-08T04:49:00.767Z,23.70
2018-06-08T04:51:33.253Z,23.59
2018-06-08T04:54:09.682Z,23.49
2018-06-08T04:56:40.190Z,23.62
2018-06-08T04:59:10.651Z,23.70
2018-06-08T05:01:42.384Z,23.69
2018-06-08T05:04:17.127Z,23.50
2018-06-08T05:06:49.594Z,23.82
2018-06-08T05:09:20.104Z,24.23
2018-06-08T05:11:51.784Z,24.34
2018-06-08T05:14:22.131Z,24.60
2018-06-08T05:16:53.004Z,24.71
2018-06-08T05:19:23.544Z,24.87
2018-06-08T05:21:54.014Z,25.07
2018-06-08T05:24:24.677Z,25.40
2018-06-08T05:26:55.634Z,25.62
2018-06-08T05:29:27.780Z,25.93
2018-06-08T05:37:28.509Z,26.04
2018-06-08T05:39:59.000Z,26.03
2018-06-08T05:42:37.177Z,26.54
2018-06-08T05:45:09.476Z,27.13
2018-06-08T05:47:40.048Z,27.78
2018-06-08T05:50:10.333Z,27.94
2018-06-08T05:52:46.313Z,27.50
2018-06-08T05:55:16.982Z,26.92
2018-06-08T05:57:47.525Z,26.56
2018-06-08T06:00:18.095Z,27.15
2018-06-08T06:02:54.279Z,27.28
2018-06-08T06:05:24.810Z,27.57
2018-06-08T06:07:55.320Z,27.52
2018-06-08T06:10:25.705Z,27.34
2018-06-08T06:12:59.465Z,26.98
2018-06-08T06:15:30.005Z,26.90
2018-06-08T06:18:02.298Z,27.36
2018-06-08T06:20:32.811Z,27.62
2018-06-08T06:23:05.173Z,27.58
2018-06-08T06:25:35.572Z,28.17
2018-06-08T06:28:05.850Z,28.09
2018-06-08T06:30:36.273Z,28.46
2018-06-08T06:33:09.753Z,28.55
2018-06-08T06:35:40.226Z,27.95
2018-06-08T06:38:10.770Z,27.55
2018-06-08T06:40:41.307Z,27.37
2018-06-08T06:43:13.007Z,27.50
2018-06-08T06:45:43.336Z,27.21
2018-06-08T06:48:13.764Z,27.42
2018-06-08T06:50:44.975Z,27.65
2018-06-08T06:53:25.808Z,27.16
2018-06-08T06:55:56.823Z,27.08
2018-06-08T06:58:27.312Z,27.24
2018-06-08T07:00:57.800Z,27.27
2018-06-08T07:03:31.680Z,26.97
2018-06-08T07:06:02.057Z,27.00
2018-06-08T07:08:32.477Z,26.67
2018-06-08T07:11:02.888Z,27.07
2018-06-08T07:13:39.877Z,27.37
2018-06-08T07:16:10.604Z,27.69
2018-06-08T07:18:44.598Z,27.80
2018-06-08T07:21:16.045Z,27.68
2018-06-08T07:23:53.933Z,27.49
2018-06-08T07:26:24.845Z,26.88
2018-06-08T07:28:55.603Z,27.11
2018-06-08T07:31:26.551Z,27.36
2018-06-08T07:33:58.197Z,27.52
2018-06-08T07:36:31.507Z,27.72
2018-06-08T07:39:03.769Z,27.72
2018-06-08T07:41:38.856Z,27.54
2018-06-08T07:44:09.979Z,27.81
2018-06-08T07:46:42.579Z,27.92
2018-06-08T07:49:23.686Z,27.94
2018-06-08T07:51:57.229Z,28.24
2018-06-08T07:54:28.430Z,28.58
2018-06-08T07:57:00.483Z,28.88
2018-06-08T07:59:31.151Z,28.83
2018-06-08T08:02:01.265Z,29.43
2018-06-08T08:04:31.873Z,29.05
2018-06-08T08:07:02.425Z,28.83
2018-06-08T08:09:32.955Z,29.17
2018-06-08T08:12:06.478Z,28.82
2018-06-08T08:14:36.769Z,28.62
2018-06-08T08:17:08.821Z,28.49
2018-06-08T08:19:42.776Z,28.70
2018-06-08T08:22:18.452Z,28.90
2018-06-08T08:24:49.027Z,29.03
2018-06-08T08:27:19.943Z,28.58
2018-06-08T08:29:50.461Z,28.60
2018-06-08T08:32:24.033Z,29.01
2018-06-08T08:34:55.394Z,29.03
2018-06-08T08:37:25.837Z,28.57
2018-06-08T08:39:56.324Z,28.82
2018-06-08T08:42:27.852Z,28.57
2018-06-08T08:44:58.442Z,28.61
2018-06-08T08:47:28.937Z,28.44
2018-06-08T08:49:59.962Z,28.70
2018-06-08T08:52:37.343Z,28.91
2018-06-08T08:55:07.933Z,29.48
2018-06-08T08:57:38.413Z,29.27
2018-06-08T09:00:11.572Z,29.41
2018-06-08T09:02:43.285Z,29.79
2018-06-08T09:05:13.911Z,29.80
2018-06-08T09:07:46.202Z,30.02
2018-06-08T09:10:19.550Z,29.84
2018-06-08T09:12:55.887Z,29.58
2018-06-08T09:15:26.365Z,29.92
2018-06-08T09:17:56.892Z,29.98
2018-06-08T09:20:26.984Z,29.85
2018-06-08T09:22:57.182Z,29.36
2018-06-08T09:25:27.495Z,29.45
2018-06-08T09:27:58.733Z,29.52
2018-06-08T09:30:29.202Z,29.43
2018-06-08T09:33:02.554Z,29.53
2018-06-08T09:35:32.899Z,29.29
2018-06-08T09:38:03.436Z,29.02
2018-06-08T09:40:34.824Z,28.97
2018-06-08T09:43:11.187Z,29.34
2018-06-08T09:45:41.419Z,29.43
2018-06-08T09:48:11.922Z,29.46
2018-06-08T09:50:42.269Z,29.22
2018-06-08T09:53:17.037Z,28.95
2018-06-08T09:55:48.262Z,28.86
2018-06-08T09:58:19.600Z,28.75
2018-06-08T10:00:50.858Z,28.75
2018-06-08T10:03:21.217Z,28.42
2018-06-08T10:05:51.716Z,28.55
2018-06-08T10:08:22.341Z,28.39
2018-06-08T10:10:53.661Z,28.61
2018-06-08T10:13:25.043Z,28.53
2018-06-08T10:15:57.046Z,28.40
2018-06-08T10:18:30.720Z,28.51
2018-06-08T10:21:01.978Z,28.59
2018-06-08T10:23:34.480Z,28.71
2018-06-08T10:26:05.023Z,28.82
2018-06-08T10:28:35.561Z,29.06
2018-06-08T10:31:05.518Z,28.95
2018-06-08T10:33:35.823Z,28.98
2018-06-08T10:36:09.135Z,28.77
2018-06-08T10:38:39.442Z,28.61
2018-06-08T10:41:13.155Z,29.00
2018-06-08T10:43:43.814Z,29.01
2018-06-08T10:46:15.486Z,28.83
2018-06-08T10:48:45.874Z,28.85
2018-06-08T10:51:17.328Z,28.80
2018-06-08T10:53:48.275Z,28.89
2018-06-08T10:56:26.771Z,28.91
2018-06-08T10:58:59.776Z,29.16
2018-06-08T11:01:31.555Z,29.28
2018-06-08T11:04:01.939Z,29.48
2018-06-08T11:06:32.401Z,29.54
2018-06-08T11:09:05.397Z,29.62
2018-06-08T11:11:37.059Z,29.86
2018-06-08T11:14:07.521Z,29.55
2018-06-08T11:16:40.929Z,29.99
2018-06-08T11:21:49.894Z,29.45
2018-06-08T11:24:21.202Z,29.84
2018-06-08T11:27:03.611Z,29.51
2018-06-08T11:29:34.100Z,29.80
2018-06-08T11:32:08.947Z,30.00
2018-06-08T11:34:41.314Z,30.22
2018-06-08T11:37:20.101Z,30.50
2018-06-08T11:39:50.593Z,30.36
2018-06-08T11:42:25.671Z,30.02
2018-06-08T11:45:06.523Z,29.91
2018-06-08T11:47:44.210Z,30.17
2018-06-08T11:50:16.298Z,30.44
2018-06-08T11:52:48.031Z,30.63
2018-06-08T11:55:18.544Z,30.32
2018-06-08T11:57:49.186Z,29.61
2018-06-08T12:00:23.524Z,29.37
2018-06-08T12:02:56.645Z,29.61
2018-06-08T12:05:27.799Z,30.06
2018-06-08T12:07:58.887Z,30.14
2018-06-08T12:10:31.842Z,30.37
2018-06-08T12:13:10.583Z,30.67
2018-06-08T12:15:41.493Z,30.89
2018-06-08T12:18:15.208Z,31.34
2018-06-08T12:20:46.269Z,30.92
2018-06-08T12:23:18.354Z,30.79
2018-06-08T12:25:49.020Z,31.41
2018-06-08T12:28:20.879Z,31.18
2018-06-08T12:30:51.961Z,31.29
2018-06-08T12:33:23.704Z,31.56
2018-06-08T12:35:56.209Z,31.47
2018-06-08T12:38:27.474Z,31.26
2018-06-08T12:41:04.955Z,31.49
2018-06-08T12:43:36.062Z,31.58
2018-06-08T12:46:07.194Z,31.26
2018-06-08T12:48:38.064Z,31.21
2018-06-08T12:51:12.789Z,31.29
2018-06-08T12:53:45.010Z,31.34
2018-06-08T12:56:16.153Z,31.54
2018-06-08T12:58:47.241Z,32.05
2018-06-08T13:01:18.415Z,31.93
2018-06-08T13:03:50.433Z,32.02
2018-06-08T13:06:21.762Z,32.12
2018-06-08T13:08:53.480Z,32.16
2018-06-08T13:11:24.673Z,32.51
2018-06-08T13:13:55.675Z,32.45
2018-06-08T13:16:31.364Z,32.50
2018-06-08T13:19:02.427Z,32.47
2018-06-08T13:21:42.800Z,32.61
2018-06-08T13:26:49.484Z,32.70
2018-06-08T13:29:20.578Z,32.71
2018-06-08T13:31:51.633Z,32.56
2018-06-08T13:34:22.759Z,33.00
2018-06-08T13:36:55.607Z,33.17
2018-06-08T13:39:26.678Z,33.03
2018-06-08T13:41:57.830Z,33.41
2018-06-08T13:44:29.750Z,33.45
2018-06-08T13:47:00.814Z,33.05
2018-06-08T13:49:32.055Z,33.16
2018-06-08T13:52:11.769Z,33.41
2018-06-08T13:54:46.151Z,33.31
2018-06-08T13:57:17.409Z,33.44
2018-06-08T13:59:49.528Z,33.79
2018-06-08T14:02:20.743Z,34.04
2018-06-08T14:04:51.838Z,34.48
2018-06-08T14:07:24.309Z,34.62
2018-06-08T14:09:55.325Z,34.97
2018-06-08T14:12:31.366Z,34.52
2018-06-08T14:15:02.443Z,34.62
2018-06-08T14:17:33.523Z,34.31
2018-06-08T14:20:04.397Z,33.37
2018-06-08T14:22:38.613Z,33.39
2018-06-08T14:25:10.811Z,33.35
2018-06-08T14:27:41.742Z,33.87
2018-06-08T14:30:13.836Z,33.47
2018-06-08T14:32:48.779Z,33.97
2018-06-08T14:35:21.671Z,34.15
2018-06-08T14:37:52.734Z,33.98
2018-06-08T14:40:23.733Z,34.51
2018-06-08T14:42:55.541Z,33.67
2018-06-08T14:45:29.465Z,33.74
2018-06-08T14:48:03.630Z,34.36
2018-06-08T14:50:37.894Z,34.00
2018-06-08T14:53:10.542Z,35.21
2018-06-08T14:55:41.629Z,34.44
2018-06-08T14:58:16.010Z,34.69
2018-06-08T15:00:47.780Z,35.10
2018-06-08T15:03:19.624Z,35.37
2018-06-08T15:05:50.609Z,35.28
2018-06-08T15:08:21.877Z,35.69
2018-06-08T15:10:56.093Z,36.13
2018-06-08T15:13:27.163Z,34.88
2018-06-08T15:15:58.267Z,35.35
2018-06-08T15:18:29.389Z,35.29
2018-06-08T15:21:06.818Z,35.48
2018-06-08T15:23:37.813Z,35.10
2018-06-08T15:26:10.020Z,35.42
2018-06-08T15:28:40.969Z,35.36
2018-06-08T15:31:11.983Z,35.54
2018-06-08T15:33:43.198Z,34.52
2018-06-08T15:36:15.491Z,34.45
2018-06-08T15:38:47.681Z,34.49
2018-06-08T15:41:23.190Z,34.26
2018-06-08T15:44:00.834Z,34.55
2018-06-08T15:46:34.245Z,35.00
2018-06-08T15:49:06.687Z,35.19
2018-06-08T15:51:40.850Z,34.05
2018-06-08T15:54:14.776Z,34.92
2018-06-08T15:56:47.998Z,35.43
2018-06-08T15:59:18.973Z,34.85
2018-06-08T16:01:50.040Z,34.62
2018-06-08T16:04:25.004Z,33.96
2018-06-08T16:06:55.925Z,34.26
2018-06-08T16:09:27.959Z,34.82
2018-06-08T16:12:01.910Z,33.53
2018-06-08T16:14:32.671Z,32.68
2018-06-08T16:17:03.651Z,33.30
2018-06-08T16:19:35.915Z,32.15
2018-06-08T16:22:07.966Z,31.49
2018-06-08T16:24:39.123Z,31.91
2018-06-08T16:27:10.203Z,32.04
2018-06-08T16:29:41.881Z,31.81
2018-06-08T16:32:14.433Z,31.69
2018-06-08T16:34:47.055Z,31.60
2018-06-08T16:37:18.144Z,31.52
2018-06-08T16:39:54.618Z,32.25
2018-06-08T16:42:29.219Z,32.03
2018-06-08T16:45:00.425Z,31.69
2018-06-08T16:47:33.356Z,31.92
2018-06-08T16:50:04.114Z,31.27
2018-06-08T16:52:36.141Z,30.45
2018-06-08T16:55:07.194Z,29.98
2018-06-08T16:57:38.574Z,29.88
2018-06-08T17:00:10.736Z,29.55
2018-06-08T17:02:41.179Z,29.14
2018-06-08T17:05:11.685Z,28.83
2018-06-08T17:07:42.353Z,28.40
2018-06-08T17:10:13.123Z,28.11
2018-06-08T17:12:43.658Z,27.82
2018-06-08T17:15:14.073Z,27.53
2018-06-08T17:17:44.257Z,27.04
2018-06-08T17:20:15.961Z,26.79
2018-06-08T17:22:47.164Z,26.49
2018-06-08T17:25:17.606Z,26.25
2018-06-08T17:27:48.116Z,26.16
2018-06-08T17:30:19.543Z,26.08
2018-06-08T17:32:49.885Z,25.96
2018-06-08T17:35:21.234Z,25.99
2018-06-08T17:37:51.695Z,26.07
2018-06-08T17:40:25.897Z,25.77
2018-06-08T17:42:56.424Z,25.73
2018-06-08T17:45:26.843Z,25.61
2018-06-08T17:47:57.354Z,25.48
2018-06-08T17:50:30.850Z,25.39
2018-06-08T17:53:01.388Z,25.47
2018-06-08T17:55:31.849Z,25.32
2018-06-08T17:58:02.131Z,25.27
2018-06-08T18:00:35.883Z,25.36
2018-06-08T18:03:06.264Z,25.26
2018-06-08T18:05:36.551Z,25.32
2018-06-08T18:08:06.954Z,25.17
2018-06-08T18:10:40.543Z,25.16
2018-06-08T18:13:15.914Z,25.00
2018-06-08T18:15:49.946Z,25.10
2018-06-08T18:18:20.465Z,25.25
2018-06-08T18:21:22.049Z,25.19
2018-06-08T18:24:00.497Z,25.13
2018-06-08T18:26:40.387Z,25.09
2018-06-08T18:29:11.224Z,24.98
2018-06-08T18:31:45.895Z,24.86
2018-06-08T18:34:17.322Z,25.01
2018-06-08T18:36:49.794Z,25.09
2018-06-08T18:39:51.788Z,24.96
2018-06-08T18:42:38.241Z,24.84
2018-06-08T19:17:34.479Z,24.05
2018-06-08T19:20:10.628Z,24.05
2018-06-08T19:22:56.438Z,23.83
2018-06-08T19:25:32.824Z,23.75
2018-06-08T19:34:36.911Z,23.44
2018-06-08T19:37:14.873Z,23.40
2018-06-08T19:39:48.121Z,23.42
2018-06-08T19:42:22.635Z,23.50
2018-06-08T19:44:56.269Z,23.49
2018-06-08T19:47:26.798Z,23.61
2018-06-08T19:49:58.749Z,23.52
2018-06-08T19:52:30.014Z,23.26
2018-06-08T19:55:01.826Z,23.53
2018-06-08T19:57:33.402Z,23.41
2018-06-08T20:00:04.883Z,23.42
2018-06-08T20:02:35.211Z,23.36
2018-06-08T20:05:05.746Z,23.42
2018-06-08T20:07:36.235Z,23.29
2018-06-08T20:10:09.936Z,23.33
2018-06-08T20:12:40.476Z,23.20
2018-06-08T20:15:11.039Z,23.24
2018-06-08T20:17:41.463Z,23.10
2018-06-08T20:20:13.436Z,23.02
2018-06-08T20:22:43.889Z,22.99
2018-06-08T20:25:14.260Z,23.15
2018-06-08T20:27:44.204Z,23.24
2018-06-08T20:30:17.635Z,23.47
2018-06-08T20:32:48.193Z,23.43
2018-06-08T20:35:18.358Z,23.49
2018-06-08T20:37:49.351Z,23.40
2018-06-08T20:40:23.009Z,23.43
2018-06-08T20:42:53.423Z,23.51
2018-06-08T20:45:23.961Z,23.56
2018-06-08T20:47:54.467Z,23.51
2018-06-08T20:50:25.956Z,23.45
2018-06-08T20:52:56.424Z,23.46
2018-06-08T20:55:27.186Z,23.49
2018-06-08T20:57:57.363Z,23.43
2018-06-08T21:00:27.922Z,23.48
2018-06-08T21:02:58.483Z,23.53
2018-06-08T21:05:28.974Z,23.57
2018-06-08T21:07:59.343Z,23.62
2018-06-08T21:10:29.767Z,23.67
2018-06-08T21:13:00.029Z,23.57
2018-06-08T21:15:30.696Z,23.63
2018-06-08T21:18:03.972Z,23.54
2018-06-08T21:20:40.222Z,23.62
2018-06-08T21:23:10.815Z,23.61
2018-06-08T21:25:41.653Z,23.68
2018-06-08T21:28:13.366Z,23.69
2018-06-08T21:30:43.683Z,23.69
2018-06-08T21:33:14.731Z,23.57
2018-06-08T21:35:45.211Z,23.55
2018-06-08T21:38:15.722Z,23.54
2018-06-08T21:40:46.473Z,23.63
2018-06-08T21:43:18.007Z,23.60
2018-06-08T21:45:49.017Z,23.67
2018-06-08T21:48:19.496Z,23.56
2018-06-08T21:50:52.978Z,23.59
2018-06-08T21:53:23.420Z,23.62
2018-06-08T21:55:54.046Z,23.47
2018-06-08T21:58:25.888Z,23.61
2018-06-08T22:00:56.263Z,23.51
2018-06-08T22:03:26.717Z,23.39
2018-06-08T22:05:57.295Z,23.45
2018-06-08T22:08:27.917Z,23.53
2018-06-08T22:10:58.892Z,23.62
2018-06-08T22:13:29.449Z,23.52
2018-06-08T22:15:59.981Z,23.55
2018-06-08T22:18:30.559Z,23.39
2018-06-08T22:21:03.633Z,23.48
2018-06-08T22:23:35.264Z,23.48
2018-06-08T22:26:05.620Z,23.47
2018-06-08T22:28:35.990Z,23.33
2018-06-08T22:31:06.530Z,23.35
2018-06-08T22:33:47.866Z,23.32
2018-06-08T22:36:24.069Z,23.39
2018-06-08T22:38:54.385Z,23.42
2018-06-08T22:41:25.317Z,23.44
2018-06-08T22:43:57.342Z,23.52
2018-06-08T22:46:28.063Z,23.50
2018-06-08T22:48:59.335Z,23.58
2018-06-08T22:51:30.964Z,23.53
2018-06-08T22:54:01.796Z,23.47
2018-06-08T22:56:32.889Z,23.43
2018-06-08T22:59:03.904Z,23.35
2018-06-08T23:01:35.654Z,23.35
2018-06-08T23:04:06.279Z,23.35
2018-06-08T23:06:38.967Z,23.39
2018-06-08T23:09:09.852Z,23.34
2018-06-08T23:11:41.447Z,23.25
2018-06-08T23:14:14.975Z,23.05
2018-06-08T23:19:28.159Z,23.16
2018-06-08T23:21:58.591Z,23.26
2018-06-08T23:24:29.279Z,23.24
2018-06-08T23:26:59.782Z,23.19
2018-06-08T23:29:30.699Z,23.07
2018-06-08T23:32:01.549Z,23.05
2018-06-08T23:34:34.539Z,23.22
2018-06-08T23:37:13.688Z,23.23
2018-06-08T23:39:44.708Z,23.22
2018-06-08T23:42:15.614Z,23.20
2018-06-08T23:44:46.643Z,23.20
2018-06-08T23:47:17.179Z,23.19
2018-06-08T23:49:48.578Z,23.15
2018-06-08T23:52:19.065Z,23.19
2018-06-08T23:54:49.784Z,23.13
2018-06-08T23:57:21.548Z,23.26
2018-06-08T23:59:52.123Z,23.23
